createdAt,value
2023-04-02T00:01:45.331Z,100970.88
2023-04-02T00:04:28.848Z,100967.44
2023-04-02T00:07:33.107Z,100975.09
2023-04-02T00:10:03.640Z,100976.56
2023-04-02T00:12:34.083Z,100982.13
2023-04-02T00:15:04.473Z,100983.41
2023-04-02T00:17:34.697Z,100976.28
2023-04-02T00:20:11.344Z,100975.78
2023-04-02T00:22:46.973Z,100977.72
2023-04-02T00:25:17.781Z,100989.63
2023-04-02T00:27:48.829Z,100999.88
2023-04-02T00:30:19.518Z,101001.00
2023-04-02T00:32:50.483Z,101010.16
2023-04-02T00:35:30.950Z,101005.09
2023-04-02T00:38:01.575Z,101001.50
2023-04-02T00:40:34.409Z,101005.09
2023-04-02T00:43:05.931Z,101005.91
2023-04-02T00:45:41.167Z,101008.66
2023-04-02T00:48:34.678Z,101009.50
2023-04-02T00:51:20.741Z,101003.13
2023-04-02T00:53:53.911Z,101013.41
2023-04-02T00:56:38.763Z,101017.31
2023-04-02T00:59:27.900Z,101018.44
2023-04-02T01:02:24.813Z,101015.69
2023-04-02T01:05:01.794Z,101020.06
2023-04-02T01:07:56.694Z,101015.03
2023-04-02T01:10:45.482Z,101023.34
2023-04-02T01:13:36.636Z,101030.00
2023-04-02T01:16:38.820Z,101032.44
2023-04-02T01:19:09.665Z,101032.09
2023-04-02T01:21:55.240Z,101034.88
2023-04-02T01:24:28.891Z,101031.78
2023-04-02T01:27:27.273Z,101040.91
2023-04-02T01:30:02.066Z,101044.00
2023-04-02T01:32:34.401Z,101049.19
2023-04-02T01:35:05.297Z,101046.44
2023-04-02T01:37:58.915Z,101051.31
2023-04-02T01:40:42.072Z,101048.88
2023-04-02T01:43:37.128Z,101052.16
2023-04-02T01:46:34.345Z,101057.69
2023-04-02T01:49:13.984Z,101050.66
2023-04-02T01:51:49.627Z,101058.97
2023-04-02T01:54:22.195Z,101050.53
2023-04-02T01:56:54.037Z,101053.75
2023-04-02T01:59:26.373Z,101062.41
2023-04-02T02:02:07.019Z,101065.66
2023-04-02T02:04:40.621Z,101058.00
2023-04-02T02:07:21.095Z,101059.97
2023-04-02T02:09:56.621Z,101059.63
2023-04-02T02:12:27.308Z,101061.91
2023-04-02T02:14:57.856Z,101065.16
2023-04-02T02:17:36.755Z,101070.53
2023-04-02T02:20:13.643Z,101075.59
2023-04-02T02:22:49.852Z,101070.06
2023-04-02T02:25:39.188Z,101072.16
2023-04-02T02:28:19.594Z,101062.88
2023-04-02T02:30:53.665Z,101067.13
2023-04-02T02:33:29.482Z,101066.63
2023-04-02T02:36:27.729Z,101057.19
2023-04-02T02:39:06.167Z,101062.06
2023-04-02T02:41:54.667Z,101066.31
2023-04-02T02:44:38.253Z,101068.25
2023-04-02T02:47:22.447Z,101052.13
2023-04-02T02:49:58.215Z,101054.09
2023-04-02T02:52:37.771Z,101060.09
2023-04-02T02:55:20.841Z,101050.66
2023-04-02T02:58:18.155Z,101051.47
2023-04-02T03:00:59.209Z,101047.91
2023-04-02T03:03:35.004Z,101053.44
2023-04-02T03:06:12.847Z,101057.00
2023-04-02T03:08:56.434Z,101047.56
2023-04-02T03:11:38.056Z,101040.06
2023-04-02T03:14:33.515Z,101038.94
2023-04-02T03:17:35.434Z,101040.88
2023-04-02T03:20:18.470Z,101034.19
2023-04-02T03:23:05.168Z,101036.16
2023-04-02T03:25:46.694Z,101035.03
2023-04-02T03:28:24.492Z,101037.31
2023-04-02T03:31:06.348Z,101026.72
2023-04-02T03:33:48.371Z,101024.75
2023-04-02T03:36:31.484Z,101015.31
2023-04-02T03:39:26.202Z,101021.19
2023-04-02T03:42:06.246Z,101022.47
2023-04-02T03:44:57.683Z,101018.56
2023-04-02T03:47:41.797Z,101016.94
2023-04-02T03:50:36.135Z,101026.03
2023-04-02T03:53:08.043Z,101011.41
2023-04-02T03:55:41.365Z,101013.34
2023-04-02T03:58:37.728Z,101004.38
2023-04-02T04:01:12.408Z,100994.94
2023-04-02T04:03:50.385Z,100991.16
2023-04-02T04:06:48.781Z,100990.66
2023-04-02T04:09:40.525Z,100999.78
2023-04-02T04:12:38.522Z,100989.84
2023-04-02T04:15:17.296Z,100988.22
2023-04-02T04:18:04.549Z,100989.84
2023-04-02T04:20:52.958Z,100995.38
2023-04-02T04:23:32.395Z,101000.94
2023-04-02T04:26:27.039Z,100976.50
2023-04-02T04:29:17.932Z,100976.50
2023-04-02T04:31:57.847Z,100989.50
2023-04-02T04:34:48.879Z,100978.78
2023-04-02T04:37:31.505Z,100969.31
2023-04-02T04:40:19.657Z,100964.09
2023-04-02T04:42:55.740Z,100967.69
2023-04-02T04:45:54.328Z,100966.88
2023-04-02T04:48:51.760Z,100942.75
2023-04-02T04:51:31.058Z,100945.03
2023-04-02T04:54:03.264Z,100942.28
2023-04-02T04:56:37.094Z,100933.81
2023-04-02T04:59:45.273Z,100916.38
2023-04-02T05:02:29.472Z,100913.63
2023-04-02T05:05:00.710Z,100922.63
2023-04-02T05:07:34.250Z,100919.00
2023-04-02T05:10:10.928Z,100919.53
2023-04-02T05:12:55.569Z,100909.31
2023-04-02T05:15:36.669Z,100916.66
2023-04-02T05:18:46.893Z,100918.44
2023-04-02T05:21:41.586Z,100929.22
2023-04-02T05:25:19.941Z,100922.06
2023-04-02T05:28:14.258Z,100914.91
2023-04-02T05:31:04.093Z,100898.09
2023-04-02T05:33:37.941Z,100898.78
2023-04-02T05:36:37.788Z,100890.47
2023-04-02T05:39:13.550Z,100878.91
2023-04-02T05:41:50.297Z,100855.13
2023-04-02T05:44:43.217Z,100851.38
2023-04-02T05:47:25.516Z,100842.44
2023-04-02T05:50:14.916Z,100836.91
2023-04-02T05:53:11.377Z,100835.28
2023-04-02T05:55:54.710Z,100839.16
2023-04-02T05:58:37.532Z,100839.03
2023-04-02T06:01:49.646Z,100833.00
2023-04-02T06:04:38.621Z,100814.41
2023-04-02T06:07:11.759Z,100807.75
2023-04-02T06:09:57.721Z,100802.06
2023-04-02T06:12:40.838Z,100790.81
2023-04-02T06:15:19.273Z,100797.81
2023-04-02T06:17:56.632Z,100798.63
2023-04-02T06:20:26.971Z,100781.56
2023-04-02T06:23:02.545Z,100753.03
2023-04-02T06:25:41.367Z,100758.91
2023-04-02T06:28:20.340Z,100735.66
2023-04-02T06:31:02.935Z,100736.94
2023-04-02T06:33:38.825Z,100739.03
2023-04-02T06:36:12.244Z,100750.78
2023-04-02T06:38:45.922Z,100760.03
2023-04-02T06:41:24.303Z,100754.16
2023-04-02T06:44:31.066Z,100753.22
2023-04-02T06:47:39.157Z,100743.44
2023-04-02T06:50:19.415Z,100742.47
2023-04-02T06:52:54.304Z,100741.06
2023-04-02T06:55:37.710Z,100731.13
2023-04-02T06:58:08.310Z,100734.38
2023-04-02T07:00:48.454Z,100719.56
2023-04-02T07:03:34.036Z,100716.47
2023-04-02T07:06:23.231Z,100691.06
2023-04-02T07:08:56.478Z,100695.63
2023-04-02T07:11:28.573Z,100695.63
2023-04-02T07:14:02.774Z,100694.16
2023-04-02T07:16:39.069Z,100694.63
2023-04-02T07:19:09.816Z,100675.56
2023-04-02T07:21:40.850Z,100650.66
2023-04-02T07:24:11.130Z,100635.56
2023-04-02T07:26:41.391Z,100626.09
2023-04-02T07:29:16.215Z,100624.63
2023-04-02T07:31:46.917Z,100629.50
2023-04-02T07:34:17.169Z,100628.34
2023-04-02T07:36:47.738Z,100625.56
2023-04-02T07:39:18.085Z,100624.09
2023-04-02T07:41:59.734Z,100616.44
2023-04-02T07:44:31.184Z,100614.81
2023-04-02T07:47:01.748Z,100606.97
2023-04-02T07:49:32.140Z,100598.66
2023-04-02T07:52:03.142Z,100599.63
2023-04-02T07:54:33.474Z,100587.75
2023-04-02T07:57:04.191Z,100566.75
2023-04-02T07:59:36.062Z,100569.28
2023-04-02T08:02:06.833Z,100563.75
2023-04-02T08:04:37.182Z,100562.63
2023-04-02T08:07:07.508Z,100547.97
2023-04-02T08:09:37.708Z,100540.94
2023-04-02T08:12:08.184Z,100536.91
2023-04-02T08:14:38.364Z,100537.69
2023-04-02T08:17:09.056Z,100535.09
2023-04-02T08:19:53.830Z,100522.88
2023-04-02T08:22:24.761Z,100516.19
2023-04-02T08:24:55.146Z,100517.44
2023-04-02T08:27:27.195Z,100504.41
2023-04-02T08:29:57.651Z,100500.16
2023-04-02T08:32:31.206Z,100504.88
2023-04-02T08:35:01.453Z,100501.44
2023-04-02T08:37:31.887Z,100495.22
2023-04-02T08:40:02.232Z,100494.53
2023-04-02T08:42:43.420Z,100487.03
2023-04-02T08:45:24.985Z,100506.88
2023-04-02T08:47:59.701Z,100502.84
2023-04-02T08:50:38.311Z,100515.66
2023-04-02T08:53:20.516Z,100517.28
2023-04-02T08:56:02.309Z,100514.84
2023-04-02T08:58:45.491Z,100517.28
2023-04-02T09:01:51.050Z,100513.34
2023-04-02T09:04:25.890Z,100519.00
2023-04-02T09:06:59.162Z,100515.09
2023-04-02T09:09:30.292Z,100525.03
2023-04-02T09:12:06.573Z,100519.13
2023-04-02T09:14:37.166Z,100514.28
2023-04-02T09:17:17.363Z,100508.72
2023-04-02T09:20:11.256Z,100502.41
2023-04-02T09:22:42.535Z,100503.19
2023-04-02T09:25:17.726Z,100496.03
2023-04-02T09:27:55.718Z,100499.63
2023-04-02T09:30:32.321Z,100496.84
2023-04-02T09:33:09.968Z,100500.56
2023-04-02T09:36:00.486Z,100498.13
2023-04-02T09:38:33.825Z,100492.13
2023-04-02T09:41:21.857Z,100489.81
2023-04-02T09:43:52.263Z,100487.41
2023-04-02T09:46:28.228Z,100485.44
2023-04-02T09:49:03.492Z,100488.56
2023-04-02T09:51:37.005Z,100481.88
2023-04-02T09:54:07.186Z,100469.28
2023-04-02T09:56:42.237Z,100475.66
2023-04-02T09:59:15.535Z,100468.97
2023-04-02T10:01:59.403Z,100462.25
2023-04-02T10:04:50.044Z,100462.25
2023-04-02T10:07:47.323Z,100467.66
2023-04-02T10:10:44.196Z,100461.31
2023-04-02T10:13:53.026Z,100470.09
2023-04-02T10:16:37.798Z,100483.94
2023-04-02T10:19:17.386Z,100500.09
2023-04-02T10:21:51.816Z,100510.34
2023-04-02T10:24:22.292Z,100515.91
2023-04-02T10:27:20.663Z,100514.63
2023-04-02T10:29:56.695Z,100530.44
2023-04-02T10:32:49.969Z,100519.69
2023-04-02T10:35:23.107Z,100533.53
2023-04-02T10:38:07.862Z,100532.28
2023-04-02T10:40:43.561Z,100531.91
2023-04-02T10:44:09.530Z,100546.25
2023-04-02T10:47:12.220Z,100536.50
2023-04-02T10:49:59.359Z,100550.34
2023-04-02T10:52:35.113Z,100555.09
2023-04-02T10:55:17.304Z,100551.19
2023-04-02T10:57:49.764Z,100557.53
2023-04-02T11:00:28.364Z,100547.16
2023-04-02T11:03:09.588Z,100547.16
2023-04-02T11:05:46.542Z,100549.91
2023-04-02T11:08:24.577Z,100553.34
2023-04-02T11:11:32.924Z,100544.22
2023-04-02T11:14:13.379Z,100550.59
2023-04-02T11:16:44.799Z,100556.81
2023-04-02T11:19:18.209Z,100557.94
2023-04-02T11:22:06.902Z,100567.41
2023-04-02T11:24:47.661Z,100568.56
2023-04-02T11:27:30.435Z,100578.47
2023-04-02T11:30:27.056Z,100575.72
2023-04-02T11:33:20.857Z,100580.78
2023-04-02T11:35:56.835Z,100581.59
2023-04-02T11:38:27.058Z,100607.00
2023-04-02T11:41:01.540Z,100625.06
2023-04-02T11:43:37.838Z,100627.84
2023-04-02T11:46:21.255Z,100635.22
2023-04-02T11:48:51.518Z,100626.22
2023-04-02T11:51:25.188Z,100620.56
2023-04-02T11:53:57.349Z,100625.75
2023-04-02T11:56:42.302Z,100623.31
2023-04-02T12:00:04.691Z,100616.84
2023-04-02T12:03:05.838Z,100617.66
2023-04-02T12:05:45.437Z,100616.03
2023-04-02T12:08:35.032Z,100620.06
2023-04-02T12:11:08.718Z,100624.34
2023-04-02T12:13:44.800Z,100621.69
2023-04-02T12:16:16.205Z,100625.28
2023-04-02T12:18:56.192Z,100636.97
2023-04-02T12:21:33.246Z,100648.53
2023-04-02T12:24:08.704Z,100642.72
2023-04-02T12:26:40.585Z,100640.81
2023-04-02T12:29:31.524Z,100632.19
2023-04-02T12:32:02.417Z,100631.81
2023-04-02T12:34:33.459Z,100635.66
2023-04-02T12:37:06.416Z,100636.88
2023-04-02T12:39:38.694Z,100662.00
2023-04-02T12:42:08.949Z,100671.81
2023-04-02T12:44:39.136Z,100673.41
2023-04-02T12:47:09.383Z,100680.16
2023-04-02T12:49:45.863Z,100683.25
2023-04-02T12:52:19.363Z,100676.44
2023-04-02T12:57:41.769Z,100668.78
2023-04-02T13:00:24.348Z,100684.72
2023-04-02T13:03:16.171Z,100679.38
2023-04-02T13:05:59.592Z,100686.22
2023-04-02T13:08:41.865Z,100686.84
2023-04-02T13:11:12.114Z,100681.81
2023-04-02T13:13:44.621Z,100676.09
2023-04-02T13:16:17.993Z,100687.66
2023-04-02T13:18:51.028Z,100685.72
2023-04-02T13:21:30.096Z,100699.56
2023-04-02T13:24:00.436Z,100702.00
2023-04-02T13:26:32.041Z,100694.50
2023-04-02T13:29:19.772Z,100686.38
2023-04-02T13:31:51.037Z,100698.09
2023-04-02T13:34:22.241Z,100698.09
2023-04-02T13:36:52.771Z,100697.28
2023-04-02T13:39:23.886Z,100693.22
2023-04-02T13:42:02.994Z,100693.06
2023-04-02T13:44:36.239Z,100703.75
2023-04-02T13:48:43.835Z,100708.69
2023-04-02T13:51:21.554Z,100721.22
2023-04-02T13:53:56.445Z,100746.75
2023-04-02T13:56:27.157Z,100739.44
2023-04-02T13:58:58.861Z,100737.16
2023-04-02T14:01:29.583Z,100746.59
2023-04-02T14:04:01.558Z,100744.97
2023-04-02T14:07:29.343Z,100748.88
2023-04-02T14:10:13.592Z,100753.25
2023-04-02T14:13:16.036Z,100757.16
2023-04-02T14:15:53.307Z,100763.03
2023-04-02T14:18:47.928Z,100766.59
2023-04-02T14:21:30.105Z,100774.09
2023-04-02T14:24:14.691Z,100799.13
2023-04-02T14:27:07.996Z,100799.13
2023-04-02T14:29:42.482Z,100813.41
2023-04-02T14:32:30.956Z,100804.28
2023-04-02T14:35:26.789Z,100801.69
2023-04-02T14:38:33.748Z,100808.38
2023-04-02T14:41:41.816Z,100810.00
2023-04-02T14:44:15.021Z,100821.22
2023-04-02T14:46:45.325Z,100827.41
2023-04-02T14:49:49.856Z,100830.16
2023-04-02T14:52:23.523Z,100826.91
2023-04-02T14:55:05.776Z,100829.69
2023-04-02T14:57:54.177Z,100821.22
2023-04-02T15:00:39.841Z,100825.28
2023-04-02T15:03:22.756Z,100819.91
2023-04-02T15:06:00.744Z,100822.84
2023-04-02T15:09:08.871Z,100827.22
2023-04-02T15:11:46.016Z,100824.94
2023-04-02T15:14:26.620Z,100829.94
2023-04-02T15:16:56.940Z,100826.84
2023-04-02T15:19:27.937Z,100821.63
2023-04-02T15:22:01.113Z,100821.28
2023-04-02T15:24:45.437Z,100825.84
2023-04-02T15:27:51.278Z,100830.44
2023-04-02T15:30:28.075Z,100827.16
2023-04-02T15:33:20.017Z,100825.72
2023-04-02T15:36:22.175Z,100837.75
2023-04-02T15:39:04.500Z,100834.53
2023-04-02T15:41:44.062Z,100829.00
2023-04-02T15:44:18.913Z,100827.84
2023-04-02T15:47:00.624Z,100838.25
2023-04-02T15:50:06.327Z,100824.59
2023-04-02T15:53:14.873Z,100835.31
2023-04-02T15:56:11.147Z,100826.22
2023-04-02T15:59:11.466Z,100837.28
2023-04-02T16:01:47.174Z,100835.31
2023-04-02T16:04:46.431Z,100828.66
2023-04-02T16:07:27.785Z,100826.22
2023-04-02T16:10:00.833Z,100834.84
2023-04-02T16:12:33.583Z,100834.97
2023-04-02T16:15:17.524Z,100829.31
2023-04-02T16:17:57.416Z,100830.44
2023-04-02T16:20:32.525Z,100841.19
2023-04-02T16:23:13.695Z,100837.75
2023-04-02T16:26:00.013Z,100834.03
2023-04-02T16:28:34.343Z,100833.22
2023-04-02T16:31:33.892Z,100825.25
2023-04-02T16:34:07.728Z,100827.19
2023-04-02T16:36:59.516Z,100830.94
2023-04-02T16:39:38.715Z,100834.03
2023-04-02T16:42:41.369Z,100819.38
2023-04-02T16:45:38.916Z,100826.22
2023-04-02T16:48:28.267Z,100827.03
2023-04-02T16:51:06.602Z,100824.13
2023-04-02T16:54:00.945Z,100822.16
2023-04-02T16:56:59.018Z,100816.97
2023-04-02T16:59:44.299Z,100817.09
2023-04-02T17:02:45.248Z,100819.06
2023-04-02T17:05:35.646Z,100819.38
2023-04-02T17:08:24.293Z,100806.38
2023-04-02T17:11:04.808Z,100800.84
2023-04-02T17:13:49.035Z,100805.53
2023-04-02T17:16:58.631Z,100800.66
2023-04-02T17:19:31.652Z,100791.91
2023-04-02T17:22:07.194Z,100788.31
2023-04-02T17:24:43.572Z,100788.81
2023-04-02T17:27:35.431Z,100774.81
2023-04-02T17:30:22.420Z,100779.22
2023-04-02T17:32:52.776Z,100788.31
2023-04-02T17:36:01.958Z,100787.19
2023-04-02T17:39:13.319Z,100789.47
2023-04-02T17:42:05.660Z,100786.38
2023-04-02T17:45:02.775Z,100798.25
2023-04-02T17:48:01.202Z,100779.72
2023-04-02T17:50:49.973Z,100788.31
2023-04-02T17:53:47.434Z,100788.81
2023-04-02T17:56:33.235Z,100778.88
2023-04-02T17:59:19.595Z,100773.34
2023-04-02T18:02:00.892Z,100778.88
2023-04-02T18:04:49.266Z,100769.28
2023-04-02T18:07:37.027Z,100776.75
2023-04-02T18:10:33.959Z,100769.28
2023-04-02T18:13:35.771Z,100768.47
2023-04-02T18:16:24.644Z,100761.78
2023-04-02T18:19:30.935Z,100758.22
2023-04-02T18:22:28.915Z,100751.06
2023-04-02T18:24:59.627Z,100759.84
2023-04-02T18:27:51.139Z,100752.34
2023-04-02T18:30:34.421Z,100740.50
2023-04-02T18:33:20.625Z,100742.13
2023-04-02T18:36:19.734Z,100739.00
2023-04-02T18:39:31.227Z,100732.69
2023-04-02T18:42:40.427Z,100720.78
2023-04-02T18:45:22.218Z,100723.56
2023-04-02T18:48:16.753Z,100720.00
2023-04-02T18:50:49.102Z,100719.81
2023-04-02T18:53:26.842Z,100714.78
2023-04-02T18:56:00.670Z,100711.53
2023-04-02T18:58:59.044Z,100702.56
2023-04-02T19:01:51.300Z,100707.13
2023-04-02T19:04:28.956Z,100693.78
2023-04-02T19:07:19.105Z,100689.06
2023-04-02T19:09:51.802Z,100693.00
2023-04-02T19:12:24.613Z,100690.53
2023-04-02T19:14:55.005Z,100688.59
2023-04-02T19:17:46.379Z,100685.00
2023-04-02T19:20:19.584Z,100680.63
2023-04-02T19:23:27.354Z,100682.25
2023-04-02T19:26:29.759Z,100683.38
2023-04-02T19:29:44.275Z,100680.63
2023-04-02T19:32:34.633Z,100676.72
2023-04-02T19:35:25.955Z,100673.50
2023-04-02T19:38:36.520Z,100675.91
2023-04-02T19:41:18.695Z,100680.47
2023-04-02T19:43:48.927Z,100668.28
2023-04-02T19:46:19.283Z,100673.50
2023-04-02T19:49:09.624Z,100660.97
2023-04-02T19:51:39.856Z,100658.69
2023-04-02T19:54:09.932Z,100658.69
2023-04-02T19:56:40.043Z,100658.69
2023-04-02T19:59:18.073Z,100661.94
2023-04-02T20:01:49.863Z,100653.16
2023-04-02T20:04:20.190Z,100647.63
2023-04-02T20:06:50.426Z,100645.19
2023-04-02T20:09:20.719Z,100648.13
2023-04-02T20:11:51.318Z,100641.75
2023-04-02T20:14:21.498Z,100633.81
2023-04-02T20:16:51.823Z,100638.50
2023-04-02T20:19:22.128Z,100647.28
2023-04-02T20:21:52.405Z,100652.03
2023-04-02T20:24:22.773Z,100661.13
2023-04-02T20:26:53.115Z,100659.50
2023-04-02T20:29:25.212Z,100656.41
2023-04-02T20:31:55.389Z,100659.84
2023-04-02T20:34:25.650Z,100660.16
2023-04-02T20:36:56.242Z,100670.56
2023-04-02T20:39:26.521Z,100662.59
2023-04-02T20:41:57.025Z,100664.53
2023-04-02T20:44:28.359Z,100662.47
2023-04-02T20:46:58.770Z,100664.88
2023-04-02T20:49:28.931Z,100662.91
2023-04-02T20:51:59.200Z,100661.78
2023-04-02T20:54:29.582Z,100662.59
2023-04-02T20:56:59.893Z,100671.38
2023-04-02T20:59:30.123Z,100666.84
2023-04-02T21:02:00.355Z,100665.84
2023-04-02T21:04:31.157Z,100664.53
2023-04-02T21:07:01.461Z,100663.41
2023-04-02T21:09:31.662Z,100666.50
2023-04-02T21:12:01.897Z,100661.78
2023-04-02T21:14:37.891Z,100660.63
2023-04-02T21:17:09.819Z,100662.13
2023-04-02T21:19:40.043Z,100656.09
2023-04-02T21:22:10.263Z,100660.84
2023-04-02T21:24:40.522Z,100668.66
2023-04-02T21:27:10.582Z,100672.69
2023-04-02T21:29:40.920Z,100666.38
2023-04-02T21:32:20.995Z,100678.88
2023-04-02T21:34:52.093Z,100686.03
2023-04-02T21:37:22.235Z,100682.13
2023-04-02T21:39:52.279Z,100690.78
2023-04-02T21:42:22.370Z,100696.94
2023-04-02T21:44:52.436Z,100692.22
2023-04-02T21:47:22.574Z,100695.47
2023-04-02T21:49:52.680Z,100698.25
2023-04-02T21:52:24.765Z,100698.59
2023-04-02T21:54:55.030Z,100709.78
2023-04-02T21:57:25.259Z,100709.00
2023-04-02T21:59:59.220Z,100710.13
2023-04-02T22:02:40.241Z,100705.09
2023-04-02T22:05:11.099Z,100705.09
2023-04-02T22:07:44.162Z,100708.81
2023-04-02T22:10:14.819Z,100721.19
2023-04-02T22:12:45.124Z,100722.63
2023-04-02T22:15:15.197Z,100721.31
2023-04-02T22:17:45.543Z,100728.81
2023-04-02T22:20:16.072Z,100726.06
2023-04-02T22:22:46.341Z,100726.38
2023-04-02T22:25:16.442Z,100735.81
2023-04-02T22:27:46.739Z,100732.25
2023-04-02T22:30:17.348Z,100731.75
2023-04-02T22:32:47.786Z,100739.41
2023-04-02T22:35:19.565Z,100739.72
2023-04-02T22:37:49.728Z,100742.81
2023-04-02T22:40:20.241Z,100739.72
2023-04-02T22:42:50.399Z,100747.22
2023-04-02T22:45:23.269Z,100749.16
2023-04-02T22:47:53.710Z,100744.75
2023-04-02T22:50:24.387Z,100753.53
2023-04-02T22:52:54.468Z,100758.91
2023-04-02T22:57:39.665Z,100766.88
2023-04-02T23:00:14.100Z,100766.72
2023-04-02T23:02:44.422Z,100773.09
2023-04-02T23:05:14.823Z,100779.25
2023-04-02T23:07:45.546Z,100783.16
2023-04-02T23:10:15.706Z,100784.94
2023-04-02T23:12:46.172Z,100785.75
2023-04-02T23:15:16.421Z,100786.91
2023-04-02T23:17:46.465Z,100790.78
2023-04-02T23:20:16.772Z,100796.00
2023-04-02T23:22:47.092Z,100790.78
2023-04-02T23:25:17.363Z,100801.38
2023-04-02T23:27:47.885Z,100802.66
2023-04-02T23:30:19.013Z,100809.81
2023-04-02T23:32:49.296Z,100812.09
2023-04-02T23:35:19.629Z,100816.81
2023-04-02T23:37:52.075Z,100812.09
2023-04-02T23:40:22.345Z,100826.25
2023-04-02T23:42:52.407Z,100824.63
2023-04-02T23:45:22.436Z,100832.59
2023-04-02T23:47:52.506Z,100830.16
2023-04-02T23:50:23.976Z,100845.13
2023-04-02T23:52:54.106Z,100853.41
2023-04-02T23:55:24.291Z,100841.53
2023-04-02T23:57:54.834Z,100849.03
